SACO/COR METAR and TAF weather

Enter ICAO airport designator
Station Type Date Time Source
SACO METAR 2020/04/05 17:00 UTC NOAA

SACO 051700Z 15006KT 090V220 CAVOK 25/14 Q1009 NOSIG


Station Type Date Time Source
SACO Decoded METAR 2020/04/05 17:00 UTC NOAA

Cordoba Aerodrome, Argentina (SACO) 31-19S 064-13W 474M
Apr 05, 2020 - 01:00 PM EDT / 2020.04.05 1700 UTC
Wind: from the SSE (150 degrees) at 7 MPH (6 KT) (direction variable):0
Visibility: greater than 7 mile(s):0
Temperature: 77 F (25 C)
Dew Point: 57 F (14 C)
Relative Humidity: 50%
Pressure (altimeter): 29.80 in. Hg (1009 hPa)
ob: SACO 051700Z 15006KT 090V220 CAVOK 25/14 Q1009 NOSIG
cycle: 17

Station Type Date Time Source
SACO TAF 2020/04/05 18:06 UTC NOAA

TAF TAF SACO 051700Z 0518/0618 14005KT 9999 SCT030 TX22/0618Z TN15/0610Z
BECMG 0520/0522 09010KT 9999 BKN030
BECMG 0606/0608 20020G30KT 9999 SCT015
BECMG 062/0614 18015KT CAVOK

Example: see airport list